createdAt,value
2023-01-03T12:52:14.975Z,77.36
2023-01-03T12:54:47.641Z,76.42
2023-01-03T12:58:00.187Z,77.98
2023-01-03T13:00:43.587Z,77.07
2023-01-03T13:03:18.819Z,73.74
2023-01-03T13:05:49.569Z,75.03
2023-01-03T13:08:22.283Z,76.50
2023-01-03T13:10:51.650Z,75.54
2023-01-03T13:13:20.398Z,74.04
2023-01-03T13:15:48.828Z,74.38
2023-01-03T13:18:35.182Z,73.45
2023-01-03T13:21:03.091Z,74.05
2023-01-03T13:23:36.695Z,74.37
2023-01-03T13:26:21.809Z,75.02
2023-01-03T13:28:51.435Z,74.17
2023-01-03T13:31:36.783Z,74.98
2023-01-03T13:34:35.036Z,73.84
2023-01-03T13:37:21.336Z,74.86
2023-01-03T13:40:20.409Z,75.43
2023-01-03T13:42:48.813Z,75.54
2023-01-03T13:45:54.216Z,76.04
2023-01-03T13:48:41.140Z,76.42
2023-01-03T13:51:38.737Z,76.89
2023-01-03T13:54:25.851Z,77.52
2023-01-03T13:57:06.919Z,78.19
2023-01-03T13:59:37.322Z,78.35
2023-01-03T14:02:49.898Z,79.83
2023-01-03T14:05:28.871Z,79.99
2023-01-03T14:08:21.096Z,80.59
2023-01-03T14:11:08.225Z,80.94
2023-01-03T14:13:41.656Z,81.52
2023-01-03T14:16:22.681Z,83.64
2023-01-03T14:18:58.871Z,83.88
2023-01-03T14:21:28.053Z,84.04
2023-01-03T14:24:00.568Z,85.46
2023-01-03T14:26:29.627Z,85.48
2023-01-03T14:28:58.934Z,86.62
2023-01-03T14:31:28.013Z,88.47
2023-01-03T14:33:57.144Z,89.33
2023-01-03T14:36:25.113Z,91.06
2023-01-03T14:38:54.642Z,91.94
2023-01-03T14:41:30.550Z,92.25
2023-01-03T14:44:04.517Z,92.46
2023-01-03T14:46:32.668Z,94.10
2023-01-03T14:49:03.669Z,94.98
2023-01-03T14:51:32.936Z,96.28
2023-01-03T14:54:01.470Z,99.46
2023-01-03T14:56:29.457Z,100.00
2023-01-03T14:58:57.463Z,100.00
2023-01-03T15:01:27.213Z,100.00
2023-01-03T15:03:55.305Z,100.00
2023-01-03T15:06:24.166Z,100.00
2023-01-03T15:08:52.973Z,100.00
2023-01-03T15:11:26.996Z,100.00
2023-01-03T15:13:56.682Z,100.00
2023-01-03T15:16:27.682Z,100.00
2023-01-03T15:19:01.990Z,100.00
2023-01-03T15:21:29.973Z,100.00
2023-01-03T15:23:57.959Z,100.00
2023-01-03T15:26:26.855Z,100.00
2023-01-03T15:28:55.160Z,100.00
2023-01-03T15:31:30.217Z,100.00
2023-01-03T15:34:12.875Z,100.00
2023-01-03T15:36:40.875Z,100.00
2023-01-03T15:39:09.617Z,100.00
2023-01-03T15:42:19.629Z,100.00
2023-01-03T15:44:45.044Z,100.00
2023-01-03T15:47:17.377Z,100.00
2023-01-03T15:49:46.815Z,100.00
2023-01-03T15:52:14.901Z,100.00
2023-01-03T15:54:43.021Z,100.00
2023-01-03T15:57:12.551Z,100.00
2023-01-03T15:59:43.497Z,100.00
2023-01-03T16:02:16.794Z,100.00
2023-01-03T16:04:44.959Z,100.00
2023-01-03T16:07:13.190Z,100.00
2023-01-03T16:09:41.228Z,100.00
2023-01-03T16:12:12.236Z,100.00
2023-01-03T16:14:41.131Z,100.00
2023-01-03T16:17:09.449Z,100.00
2023-01-03T16:19:38.822Z,100.00
2023-01-03T16:22:33.809Z,100.00
2023-01-03T16:24:54.739Z,100.00
2023-01-03T16:27:25.595Z,100.00
2023-01-03T16:29:53.615Z,100.00
2023-01-03T16:32:22.767Z,100.00
2023-01-03T16:34:52.735Z,100.00
2023-01-03T16:37:20.701Z,100.00
2023-01-03T16:39:49.060Z,100.00
2023-01-03T16:42:17.155Z,100.00
2023-01-03T16:44:46.594Z,100.00
2023-01-03T16:47:15.910Z,100.00
2023-01-03T16:49:44.108Z,100.00
2023-01-03T16:52:15.321Z,100.00
2023-01-03T16:54:43.326Z,100.00
2023-01-03T16:57:14.532Z,100.00
2023-01-03T16:59:42.491Z,100.00
2023-01-03T17:02:10.705Z,100.00
2023-01-03T17:04:38.845Z,100.00
2023-01-03T17:07:06.815Z,100.00
2023-01-03T17:09:36.970Z,100.00
2023-01-03T17:12:05.079Z,100.00
2023-01-03T17:14:34.445Z,100.00
2023-01-03T17:17:02.528Z,100.00
2023-01-03T17:22:20.012Z,100.00
2023-01-03T17:24:49.282Z,100.00
2023-01-03T17:27:18.368Z,100.00
2023-01-03T17:29:46.579Z,100.00
2023-01-03T17:32:17.698Z,100.00
2023-01-03T17:34:45.668Z,100.00
2023-01-03T17:37:15.644Z,100.00
2023-01-03T17:39:43.571Z,100.00
2023-01-03T17:42:16.597Z,100.00
2023-01-03T17:45:05.527Z,100.00
2023-01-03T17:47:51.791Z,100.00
2023-01-03T17:50:19.872Z,100.00
2023-01-03T17:52:52.004Z,100.00
2023-01-03T17:55:24.928Z,100.00
2023-01-03T17:57:54.312Z,100.00
2023-01-03T18:00:23.409Z,100.00
2023-01-03T18:02:51.636Z,100.00
2023-01-03T18:05:26.683Z,100.00
2023-01-03T18:07:55.403Z,100.00
2023-01-03T18:10:31.777Z,100.00
2023-01-03T18:13:01.163Z,100.00
2023-01-03T18:15:29.062Z,100.00
2023-01-03T18:17:57.034Z,100.00
2023-01-03T18:20:26.595Z,100.00
2023-01-03T18:22:54.586Z,100.00
2023-01-03T18:25:23.680Z,100.00
2023-01-03T18:27:52.633Z,100.00
2023-01-03T18:30:22.095Z,100.00
2023-01-03T18:32:50.100Z,100.00
2023-01-03T18:35:24.442Z,100.00
2023-01-03T18:37:56.623Z,100.00
2023-01-03T18:40:27.428Z,100.00
2023-01-03T18:43:10.421Z,100.00
2023-01-03T18:45:40.014Z,100.00
2023-01-03T18:48:08.182Z,100.00
2023-01-03T18:50:36.192Z,100.00
2023-01-03T18:53:04.463Z,100.00
2023-01-03T18:55:33.759Z,100.00
2023-01-03T18:58:05.925Z,100.00
2023-01-03T19:00:33.869Z,100.00
2023-01-03T19:03:03.323Z,100.00
2023-01-03T19:05:31.379Z,100.00
2023-01-03T19:08:00.448Z,100.00
2023-01-03T19:10:28.411Z,100.00
2023-01-03T19:12:57.104Z,100.00
2023-01-03T19:15:26.126Z,100.00
2023-01-03T19:17:54.066Z,100.00
2023-01-03T19:20:27.068Z,100.00
2023-01-03T19:22:55.279Z,100.00
2023-01-03T19:25:25.401Z,100.00
2023-01-03T19:27:54.357Z,100.00
2023-01-03T19:30:24.863Z,100.00
2023-01-03T19:32:53.823Z,100.00
2023-01-03T19:35:23.461Z,100.00
2023-01-03T19:37:51.432Z,100.00
2023-01-03T19:40:20.233Z,100.00
2023-01-03T19:42:51.217Z,100.00
2023-01-03T19:45:22.959Z,100.00
2023-01-03T19:47:50.972Z,100.00
2023-01-03T19:50:20.247Z,100.00
2023-01-03T19:52:49.570Z,100.00
2023-01-03T19:55:17.931Z,100.00
2023-01-03T19:57:46.987Z,100.00
2023-01-03T20:00:18.939Z,100.00
2023-01-03T20:02:47.057Z,100.00
2023-01-03T20:05:16.618Z,100.00
2023-01-03T20:07:44.719Z,100.00
2023-01-03T20:10:16.995Z,100.00
2023-01-03T20:12:44.997Z,100.00
2023-01-03T20:15:17.226Z,100.00
2023-01-03T20:17:45.183Z,100.00
2023-01-03T20:20:13.247Z,100.00
2023-01-03T20:25:31.225Z,100.00
2023-01-03T20:27:59.605Z,100.00
2023-01-03T20:30:28.673Z,100.00
2023-01-03T20:32:56.754Z,100.00
2023-01-03T20:38:13.242Z,100.00
2023-01-03T20:40:42.558Z,100.00
2023-01-03T20:43:12.619Z,100.00
2023-01-03T20:45:40.672Z,100.00
2023-01-03T20:48:11.794Z,100.00
2023-01-03T20:50:39.728Z,100.00
2023-01-03T20:53:07.699Z,100.00
2023-01-03T20:55:35.783Z,100.00
2023-01-03T20:58:05.070Z,100.00
2023-01-03T21:00:34.320Z,100.00
2023-01-03T21:03:02.492Z,100.00
2023-01-03T21:05:30.674Z,100.00
2023-01-03T21:08:16.174Z,100.00
2023-01-03T21:10:44.683Z,100.00
2023-01-03T21:13:13.975Z,100.00
2023-01-03T21:15:41.931Z,100.00
2023-01-03T21:18:10.954Z,100.00
2023-01-03T21:20:38.874Z,100.00
2023-01-03T21:23:06.840Z,100.00
2023-01-03T21:25:36.523Z,100.00
2023-01-03T21:28:04.603Z,100.00
2023-01-03T21:30:33.947Z,100.00
2023-01-03T21:33:01.863Z,100.00
2023-01-03T21:35:29.806Z,100.00
2023-01-03T21:37:57.821Z,100.00
2023-01-03T21:40:26.929Z,100.00
2023-01-03T21:43:04.789Z,100.00
2023-01-03T21:45:35.669Z,100.00
2023-01-03T21:48:04.375Z,100.00
2023-01-03T21:50:32.625Z,100.00
2023-01-03T21:53:00.574Z,100.00
2023-01-03T21:55:30.753Z,100.00
2023-01-03T21:57:58.756Z,100.00
2023-01-03T22:00:26.684Z,100.00
2023-01-03T22:03:13.603Z,100.00
2023-01-03T22:05:41.708Z,100.00
2023-01-03T22:08:10.185Z,100.00
2023-01-03T22:10:38.118Z,100.00
2023-01-03T22:13:07.107Z,100.00
2023-01-03T22:15:36.387Z,100.00
2023-01-03T22:18:07.731Z,100.00
2023-01-03T22:20:38.840Z,100.00
2023-01-03T22:23:08.432Z,100.00
2023-01-03T22:25:36.358Z,100.00
2023-01-03T22:28:04.519Z,100.00
2023-01-03T22:30:32.503Z,100.00
2023-01-03T22:33:00.482Z,100.00
2023-01-03T22:35:29.808Z,100.00
2023-01-03T22:37:57.818Z,100.00
2023-01-03T22:40:25.764Z,100.00
2023-01-03T22:42:53.673Z,100.00
2023-01-03T22:45:21.622Z,100.00
2023-01-03T22:47:49.585Z,100.00
2023-01-03T22:50:17.797Z,100.00
2023-01-03T22:52:47.099Z,100.00
2023-01-03T22:55:15.028Z,100.00
2023-01-03T22:57:43.028Z,100.00
2023-01-03T23:00:12.622Z,100.00
2023-01-03T23:02:42.039Z,100.00
2023-01-03T23:05:10.455Z,100.00
2023-01-03T23:07:44.791Z,100.00
2023-01-03T23:10:14.124Z,100.00
2023-01-03T23:12:59.077Z,100.00
2023-01-03T23:15:27.605Z,100.00
2023-01-03T23:17:58.162Z,100.00
2023-01-03T23:20:27.316Z,100.00
2023-01-03T23:22:59.671Z,100.00
2023-01-03T23:25:29.631Z,100.00
2023-01-03T23:27:57.641Z,100.00
2023-01-03T23:30:25.681Z,100.00
2023-01-03T23:32:53.691Z,100.00
2023-01-03T23:35:21.619Z,100.00
2023-01-03T23:37:49.663Z,100.00
2023-01-03T23:40:17.618Z,100.00
2023-01-03T23:42:46.958Z,100.00
2023-01-03T23:45:14.979Z,100.00
2023-01-03T23:47:42.963Z,100.00
2023-01-03T23:50:11.103Z,100.00
2023-01-03T23:52:39.097Z,100.00
2023-01-03T23:55:12.589Z,100.00
2023-01-03T23:57:40.942Z,100.00
